National Weather Service Raw Text Product

Displaying AFOS PIL: TAFOTM Received: 2017-12-07 05:29 UTC


046 
FTUS43 KDMX 070529
TAFOTM
TAF
KOTM 070529Z 0706/0806 32018G26KT 5SM -SN VCSH BKN025
     FM070900 31014G22KT P6SM BKN035
     FM071200 30012G18KT P6SM SCT250
     FM072300 27009KT P6SM FEW250=